Time;durP1;ratioP1;P1;durP2;ratioP2;P2;SDS_P1;SDS_P2;PMS_P1;PMS_P2;Temp;Humidity;BMP_temperature;BMP_pressure;BME280_temperature;BME280_humidity;BME280_pressure;Samples;Min_cycle;Max_cycle;Signal;HPM_P1;HPM_P2
2022/04/24 00:00:46;;;;;;;2.50;1.50;;;;;;;27.01;28.74;94676.59;4932304;28;20031;-30
2022/04/24 00:03:12;;;;;;;3.00;1.60;;;;;;;27.01;28.74;94676.59;4932719;28;20039;-32
2022/04/24 00:05:37;;;;;;;2.17;1.50;;;;;;;27.01;28.74;94676.59;4932763;28;20035;-30
2022/04/24 00:08:03;;;;;;;2.30;1.52;;;;;;;27.01;28.74;94676.59;4928230;28;20039;-30
2022/04/24 00:10:28;;;;;;;1.77;1.50;;;;;;;27.01;28.74;94676.59;4925838;28;21051;-29
2022/04/24 00:12:53;;;;;;;1.60;1.50;;;;;;;-148.56;28.74;94676.59;4925881;28;20402;-32
2022/04/24 00:15:19;;;;;;;2.28;1.52;;;;;;;27.01;28.74;94676.59;4928407;28;20039;-36
2022/04/24 00:17:44;;;;;;;2.13;1.33;;;;;;;27.01;28.78;94618.75;4922930;28;20046;-29
2022/04/24 00:20:10;;;;;;;1.40;1.30;;;;;;;27.01;28.78;94618.75;4930937;28;20090;-31
2022/04/24 00:22:36;;;;;;;1.75;1.50;;;;;;;27.01;28.78;94618.75;4933039;28;20023;-31
2022/04/24 00:25:01;;;;;;;1.83;1.38;;;;;;;27.01;28.78;94618.75;4929015;28;20759;-32
2022/04/24 00:27:27;;;;;;;2.20;1.55;;;;;;;27.01;28.78;94618.75;4924869;28;20050;-31
2022/04/24 00:29:52;;;;;;;1.75;1.48;;;;;;;-148.56;28.78;94618.75;4924065;28;20031;-31
2022/04/24 00:32:17;;;;;;;1.42;1.30;;;;;;;27.01;28.78;94618.75;4915602;28;20877;-29
2022/04/24 00:34:43;;;;;;;1.77;1.35;;;;;;;27.01;28.78;94618.75;4886850;28;20035;-29
2022/04/24 00:37:08;;;;;;;1.50;1.30;;;;;;;27.01;28.78;94618.75;4884545;28;20368;-34
2022/04/24 00:39:34;;;;;;;2.10;1.58;;;;;;;27.01;28.78;94618.75;4888488;28;20039;-29
2022/04/24 00:41:59;;;;;;;1.58;1.35;;;;;;;27.01;28.78;94618.75;4881933;28;20032;-35
2022/04/24 00:44:25;;;;;;;1.88;1.30;;;;;;;27.01;28.78;94618.75;4884065;28;20035;-30
2022/04/24 00:46:55;;;;;;;1.85;1.65;;;;;;;27.01;28.78;94618.75;4881184;28;20968;-35
2022/04/24 00:49:20;;;;;;;1.70;1.30;;;;;;;27.01;28.78;94618.75;4882853;28;20174;-35
2022/04/24 00:51:46;;;;;;;1.50;1.40;;;;;;;27.01;28.78;94618.75;4888095;28;20047;-33
2022/04/24 00:54:11;;;;;;;1.45;1.17;;;;;;;27.01;28.78;94618.75;4885979;28;20139;-33
2022/04/24 00:56:38;;;;;;;1.70;1.50;;;;;;;27.01;28.78;94618.75;4882017;28;20132;-31
2022/04/24 00:59:04;;;;;;;2.70;1.20;;;;;;;27.01;28.78;94618.75;4882160;28;20043;-37
2022/04/24 01:01:30;;;;;;;4.53;1.50;;;;;;;27.01;28.78;94618.75;4884815;28;20935;-30
2022/04/24 01:03:59;;;;;;;1.83;1.63;;;;;;;27.01;28.78;94618.75;4885369;28;20043;-32
2022/04/24 01:06:25;;;;;;;4.60;3.28;;;;;;;27.01;28.78;94618.75;4901624;28;20592;-31
2022/04/24 01:08:50;;;;;;;6.63;3.47;;;;;;;27.01;28.78;94618.75;4893383;28;20039;-35
2022/04/24 01:11:16;;;;;;;2.67;2.13;;;;;;;27.01;28.78;94618.75;4878908;28;21696;-32
2022/04/24 01:13:41;;;;;;;2.10;1.70;;;;;;;27.01;28.78;94618.75;4883469;28;21087;-30
2022/04/24 01:16:06;;;;;;;2.00;1.80;;;;;;;27.01;28.78;94618.75;4888307;28;20058;-36
2022/04/24 01:18:32;;;;;;;3.70;1.98;;;;;;;27.01;28.78;94618.75;4889380;28;20038;-32
2022/04/24 01:21:05;;;;;;;2.83;1.67;;;;;;;27.01;28.78;94618.75;4888925;28;20023;-32
2022/04/24 01:23:30;;;;;;;2.10;1.90;;;;;;;27.01;28.78;94618.75;4893967;28;20046;-30
2022/04/24 01:25:57;;;;;;;2.63;1.90;;;;;;;27.01;28.78;94618.75;4879543;28;20660;-33
2022/04/24 01:28:22;;;;;;;3.10;1.75;;;;;;;27.01;28.78;94618.75;4883217;28;20039;-31
2022/04/24 01:30:48;;;;;;;1.67;1.58;;;;;;;-148.56;28.78;94618.75;4897228;28;20061;-31
2022/04/24 01:33:13;;;;;;;1.67;1.55;;;;;;;27.01;28.78;94618.75;4906140;28;20039;-33
2022/04/24 01:35:39;;;;;;;6.38;1.50;;;;;;;27.01;28.78;94618.75;4922338;28;20040;-32
2022/04/24 01:38:04;;;;;;;2.28;1.70;;;;;;;27.01;28.78;94618.75;4921074;28;20036;-30
2022/04/24 01:40:29;;;;;;;2.95;1.70;;;;;;;27.01;28.78;94618.75;4924251;28;20041;-32
2022/04/24 01:42:55;;;;;;;2.00;1.60;;;;;;;27.01;28.78;94618.75;4926189;28;20031;-34
2022/04/24 01:45:20;;;;;;;1.77;1.67;;;;;;;27.01;28.78;94618.75;4921994;28;20035;-35
2022/04/24 01:47:46;;;;;;;1.38;1.27;;;;;;;27.01;28.78;94618.75;4923746;28;20027;-31
2022/04/24 01:50:11;;;;;;;5.03;1.80;;;;;;;27.01;28.78;94618.75;4921738;28;20599;-30
2022/04/24 01:52:36;;;;;;;1.73;1.40;;;;;;;27.01;28.78;94618.75;4925073;28;20043;-32
2022/04/24 01:55:02;;;;;;;1.45;1.20;;;;;;;27.01;28.78;94618.75;4924935;28;20032;-32
2022/04/24 01:57:27;;;;;;;2.63;1.50;;;;;;;27.01;28.78;94618.75;4925775;28;20051;-29
2022/04/24 01:59:53;;;;;;;1.50;1.40;;;;;;;27.01;28.78;94618.75;4924673;28;20674;-29
2022/04/24 02:02:18;;;;;;;2.40;1.30;;;;;;;27.01;28.78;94618.75;4922948;28;20033;-31
2022/04/24 02:04:44;;;;;;;2.08;1.30;;;;;;;27.01;28.78;94618.75;4925376;28;20027;-34
2022/04/24 02:07:09;;;;;;;2.13;1.83;;;;;;;27.01;28.78;94618.75;4921848;28;20039;-32
2022/04/24 02:09:35;;;;;;;1.70;1.50;;;;;;;27.01;28.78;94618.75;4923392;28;20020;-31
2022/04/24 02:12:00;;;;;;;1.90;1.30;;;;;;;27.01;28.78;94618.75;4924445;28;20400;-31
2022/04/24 02:14:26;;;;;;;1.83;1.42;;;;;;;27.01;28.78;94618.75;4924431;28;20099;-32
2022/04/24 02:16:51;;;;;;;1.98;1.30;;;;;;;27.01;28.78;94618.75;4922054;28;20038;-33
2022/04/24 02:19:17;;;;;;;1.35;1.25;;;;;;;27.01;28.78;94618.75;4923406;28;20039;-33
2022/04/24 02:21:42;;;;;;;3.40;1.65;;;;;;;27.01;28.78;94618.75;4924210;28;20110;-31
2022/04/24 02:24:07;;;;;;;1.50;1.40;;;;;;;27.01;28.78;94618.75;4922955;28;20612;-30
2022/04/24 02:26:33;;;;;;;1.52;1.42;;;;;;;27.01;28.78;94618.75;4923371;28;20049;-31
2022/04/24 02:28:58;;;;;;;1.50;1.40;;;;;;;27.01;28.78;94618.75;4923959;28;20047;-32
2022/04/24 02:31:24;;;;;;;1.85;1.42;;;;;;;27.01;28.78;94618.75;4923462;28;20511;-32
2022/04/24 02:33:49;;;;;;;1.42;1.33;;;;;;;27.01;28.78;94618.75;4918346;28;20106;-31
2022/04/24 02:36:15;;;;;;;1.50;1.40;;;;;;;27.01;28.78;94618.75;4920143;28;20449;-32
2022/04/24 02:38:41;;;;;;;1.50;1.30;;;;;;;27.01;28.78;94618.75;4925146;28;20154;-31
2022/04/24 02:41:06;;;;;;;1.48;1.38;;;;;;;27.01;28.78;94618.75;4920229;28;20498;-31
2022/04/24 02:43:31;;;;;;;1.42;1.23;;;;;;;27.01;28.78;94618.75;4923248;28;20027;-34
2022/04/24 02:45:57;;;;;;;1.77;1.30;;;;;;;26.94;28.59;94665.81;4924725;28;20058;-33
2022/04/24 02:48:22;;;;;;;1.60;1.50;;;;;;;26.94;28.59;94665.81;4922893;28;20745;-34
2022/04/24 02:50:48;;;;;;;1.40;1.25;;;;;;;26.94;28.59;94665.81;4922349;28;20042;-32
2022/04/24 02:53:14;;;;;;;1.73;1.30;;;;;;;26.94;28.59;94665.81;4923280;28;20327;-31
2022/04/24 02:55:40;;;;;;;1.30;1.20;;;;;;;26.94;28.59;94665.81;4924006;28;20034;-32
2022/04/24 02:58:05;;;;;;;1.42;1.27;;;;;;;26.94;28.59;94665.81;4923501;28;20031;-31
2022/04/24 03:01:13;;;;;;;2.67;1.30;;;;;;;26.94;28.59;94665.81;4921488;28;20058;-33
2022/04/24 03:03:19;;;;;;;2.22;1.30;;;;;;;26.94;28.59;94665.81;4921648;28;20051;-31
2022/04/24 03:05:48;;;;;;;1.35;1.25;;;;;;;26.94;28.59;94665.81;4921534;28;20089;-32
2022/04/24 03:08:17;;;;;;;1.30;1.13;;;;;;;26.94;28.59;94665.81;4922526;28;20512;-31
2022/04/24 03:10:43;;;;;;;1.75;1.33;;;;;;;26.94;28.59;94665.81;4922386;28;20049;-32
2022/04/24 03:13:09;;;;;;;1.67;1.52;;;;;;;26.94;28.59;94665.81;4922543;28;20044;-33
2022/04/24 03:15:36;;;;;;;1.38;1.27;;;;;;;26.94;28.59;94665.81;4923320;28;20024;-31
2022/04/24 03:18:02;;;;;;;1.13;1.00;;;;;;;26.94;28.59;94665.81;4923164;28;20102;-31
2022/04/24 03:20:28;;;;;;;1.73;1.42;;;;;;;26.94;28.59;94665.81;4923683;28;20603;-31
2022/04/24 03:22:53;;;;;;;1.95;1.40;;;;;;;26.94;28.59;94665.81;4919404;28;20043;-32
2022/04/24 03:25:18;;;;;;;1.50;1.40;;;;;;;26.94;28.59;94665.81;4923357;28;20596;-31
2022/04/24 03:27:44;;;;;;;1.40;1.30;;;;;;;26.94;28.59;94665.81;4922638;28;20039;-30
2022/04/24 03:30:10;;;;;;;1.50;1.40;;;;;;;26.94;28.59;94665.81;4921279;28;20020;-31
2022/04/24 03:32:35;;;;;;;1.50;1.40;;;;;;;26.94;28.59;94665.81;4917730;28;20031;-31
2022/04/24 03:35:01;;;;;;;1.52;1.20;;;;;;;26.94;28.59;94665.81;4919687;28;20491;-31
2022/04/24 03:37:26;;;;;;;1.65;1.38;;;;;;;26.94;28.59;94665.81;4921593;28;20090;-32
2022/04/24 03:39:52;;;;;;;1.80;1.35;;;;;;;26.94;28.59;94665.81;4921108;28;20474;-31
2022/04/24 03:42:17;;;;;;;5.30;2.72;;;;;;;26.94;28.59;94665.81;4913605;28;20035;-31
2022/04/24 03:44:43;;;;;;;3.88;3.22;;;;;;;26.94;28.59;94665.81;4919038;28;20031;-34
2022/04/24 03:47:08;;;;;;;5.32;2.08;;;;;;;26.94;28.59;94665.81;4922163;28;20826;-36
2022/04/24 03:49:34;;;;;;;1.98;1.67;;;;;;;26.94;28.59;94665.81;4919643;28;20141;-30
2022/04/24 03:52:00;;;;;;;5.53;1.70;;;;;;;26.94;28.59;94665.81;4918564;28;20069;-33
2022/04/24 03:54:25;;;;;;;1.80;1.50;;;;;;;26.94;28.59;94665.81;4921493;28;20031;-32
2022/04/24 03:56:50;;;;;;;2.17;1.52;;;;;;;26.94;28.59;94665.81;4923028;28;20095;-32
2022/04/24 03:59:16;;;;;;;1.40;1.30;;;;;;;26.94;28.59;94665.81;4922516;28;20027;-33
2022/04/24 04:01:41;;;;;;;1.50;1.40;;;;;;;26.94;28.59;94665.81;4922436;28;20034;-32
2022/04/24 04:04:07;;;;;;;1.77;1.60;;;;;;;26.94;28.59;94665.81;4922410;28;20680;-30
2022/04/24 04:06:32;;;;;;;3.45;1.58;;;;;;;26.94;28.59;94665.81;4918129;28;20035;-33
2022/04/24 04:08:58;;;;;;;2.08;1.40;;;;;;;26.94;28.59;94665.81;4917847;28;20023;-31
2022/04/24 04:11:23;;;;;;;2.13;1.42;;;;;;;26.94;28.59;94665.81;4922289;28;20036;-34
2022/04/24 04:13:49;;;;;;;1.98;1.63;;;;;;;26.94;28.59;94665.81;4922550;28;20023;-32
2022/04/24 04:16:14;;;;;;;2.35;1.65;;;;;;;26.94;28.59;94665.81;4924069;28;20039;-31
2022/04/24 04:18:39;;;;;;;4.90;1.42;;;;;;;26.94;28.59;94665.81;4927119;28;20060;-37
2022/04/24 04:21:05;;;;;;;1.77;1.63;;;;;;;26.94;28.59;94665.81;4923610;28;20031;-32
2022/04/24 04:23:30;;;;;;;2.03;1.58;;;;;;;26.89;28.94;94749.47;4931559;28;20038;-32
2022/04/24 04:25:56;;;;;;;1.55;1.27;;;;;;;26.89;28.94;94749.47;4931142;28;20529;-32
2022/04/24 04:28:21;;;;;;;2.80;1.30;;;;;;;-148.56;28.94;94749.47;4933632;28;20027;-31
2022/04/24 04:30:47;;;;;;;1.77;1.38;;;;;;;26.89;28.94;94749.47;4931547;28;20040;-33
2022/04/24 04:33:12;;;;;;;3.17;1.70;;;;;;;26.89;28.94;94749.47;4927463;28;20497;-32
2022/04/24 04:35:38;;;;;;;1.60;1.50;;;;;;;26.89;28.94;94749.47;4931074;28;20032;-31
2022/04/24 04:38:03;;;;;;;1.30;1.13;;;;;;;26.89;28.94;94749.47;4930580;28;20086;-33
2022/04/24 04:40:30;;;;;;;1.10;1.00;;;;;;;26.89;28.94;94749.47;4929150;28;20028;-37
2022/04/24 04:42:56;;;;;;;1.80;1.40;;;;;;;26.89;28.94;94749.47;4930265;28;20479;-30
2022/04/24 04:45:21;;;;;;;1.55;1.45;;;;;;;26.89;28.94;94749.47;4933157;28;20102;-30
2022/04/24 04:47:49;;;;;;;1.48;1.38;;;;;;;26.89;28.94;94749.47;4928513;28;20031;-32
2022/04/24 04:50:15;;;;;;;1.10;1.05;;;;;;;26.89;28.94;94749.47;4929740;28;20090;-32
2022/04/24 04:52:40;;;;;;;2.08;1.55;;;;;;;26.89;28.94;94749.47;4928286;28;20743;-32
2022/04/24 04:55:06;;;;;;;1.52;1.20;;;;;;;26.89;28.94;94749.47;4933124;28;20399;-31
2022/04/24 04:57:31;;;;;;;2.25;1.20;;;;;;;26.89;28.94;94749.47;4931076;28;20044;-29
2022/04/24 04:59:57;;;;;;;1.23;1.13;;;;;;;26.89;28.94;94749.47;4929951;28;20061;-29
2022/04/24 05:02:23;;;;;;;1.30;1.20;;;;;;;26.89;28.94;94749.47;4932180;28;20043;-33
2022/04/24 05:04:48;;;;;;;1.30;1.17;;;;;;;26.89;28.89;94833.56;4930390;28;20738;-31
2022/04/24 05:07:13;;;;;;;2.72;1.13;;;;;;;26.89;28.89;94833.56;4931851;28;20825;-31
2022/04/24 05:09:39;;;;;;;1.40;1.20;;;;;;;26.89;28.89;94833.56;4929684;28;20028;-32
2022/04/24 05:12:05;;;;;;;1.42;1.10;;;;;;;26.89;28.89;94833.56;4928437;28;20034;-31
2022/04/24 05:14:31;;;;;;;1.77;1.30;;;;;;;26.89;28.89;94833.56;4929717;28;20065;-33
2022/04/24 05:16:59;;;;;;;1.00;0.90;;;;;;;26.89;28.89;94833.56;4931175;28;20135;-32
2022/04/24 05:19:25;;;;;;;1.70;1.10;;;;;;;26.89;28.89;94833.56;4930435;28;20031;-31
2022/04/24 05:21:53;;;;;;;1.60;1.20;;;;;;;26.89;28.89;94833.56;4940566;28;20086;-32
2022/04/24 05:24:19;;;;;;;1.15;0.93;;;;;;;26.89;28.89;94833.56;4921505;28;20098;-34
2022/04/24 05:26:44;;;;;;;1.23;1.10;;;;;;;26.89;28.89;94833.56;4920204;28;20035;-31
2022/04/24 05:29:10;;;;;;;1.52;1.10;;;;;;;26.89;28.89;94833.56;4923795;28;20970;-42
2022/04/24 05:31:35;;;;;;;1.30;1.10;;;;;;;26.89;28.89;94833.56;4921953;28;20145;-33
2022/04/24 05:34:01;;;;;;;9.45;1.70;;;;;;;26.89;28.89;94833.56;4918040;28;20051;-31
2022/04/24 05:36:26;;;;;;;1.52;1.30;;;;;;;26.89;28.89;94833.56;4923711;28;20054;-31
2022/04/24 05:38:51;;;;;;;2.40;1.10;;;;;;;26.89;28.89;94833.56;4923175;28;20040;-34
2022/04/24 05:41:17;;;;;;;1.25;1.10;;;;;;;26.89;28.89;94833.56;4924006;28;20043;-30
2022/04/24 05:43:42;;;;;;;1.30;1.20;;;;;;;26.89;28.89;94833.56;4917384;28;20027;-32
2022/04/24 05:46:08;;;;;;;1.67;1.25;;;;;;;26.89;28.89;94833.56;4921530;28;20090;-32
2022/04/24 05:48:33;;;;;;;1.67;1.00;;;;;;;26.89;28.89;94833.56;4922723;28;20454;-31
2022/04/24 05:50:59;;;;;;;1.02;0.90;;;;;;;26.89;28.89;94833.56;4923927;28;20039;-33
2022/04/24 05:53:24;;;;;;;1.35;1.20;;;;;;;26.89;28.89;94833.56;4924631;28;20023;-33
2022/04/24 05:55:49;;;;;;;1.55;1.00;;;;;;;-148.56;28.89;94833.56;4926568;28;20032;-32
2022/04/24 05:58:15;;;;;;;4.80;1.05;;;;;;;26.89;28.89;94833.56;4934840;28;20039;-30
2022/04/24 06:00:40;;;;;;;1.20;1.02;;;;;;;26.89;28.89;94833.56;4922530;28;20074;-30
2022/04/24 06:03:06;;;;;;;1.40;0.90;;;;;;;26.89;28.89;94833.56;4923004;28;20028;-32
2022/04/24 06:05:31;;;;;;;1.65;1.20;;;;;;;26.89;28.89;94833.56;4923236;28;20222;-30
2022/04/24 06:07:57;;;;;;;1.58;0.95;;;;;;;26.89;28.89;94833.56;4921543;28;20047;-32
2022/04/24 06:10:22;;;;;;;2.47;0.82;;;;;;;26.89;28.89;94833.56;4922873;28;20058;-31
2022/04/24 06:12:51;;;;;;;1.25;0.82;;;;;;;-148.56;28.89;94833.56;4921793;28;20253;-31
2022/04/24 06:15:20;;;;;;;2.03;1.20;;;;;;;26.89;28.89;94833.56;4922254;28;20035;-35
2022/04/24 06:17:47;;;;;;;4.75;1.17;;;;;;;-148.56;28.89;94833.56;4919829;28;20122;-31
2022/04/24 06:20:13;;;;;;;7.15;1.30;;;;;;;26.89;28.89;94833.56;4916315;28;20560;-36
2022/04/24 06:22:49;;;;;;;2.30;1.13;;;;;;;;;;4931663;28;20028;-31
2022/04/24 06:25:18;;;;;;;8.77;1.45;;;;;;;26.89;28.89;94833.56;4920498;28;20114;-30
2022/04/24 06:27:45;;;;;;;3.50;1.73;;;;;;;26.89;28.89;94833.56;4939709;28;20043;-30
2022/04/24 06:30:11;;;;;;;6.90;1.77;;;;;;;26.89;28.89;94833.56;4923165;28;20043;-32
2022/04/24 06:32:41;;;;;;;6.25;1.92;;;;;;;26.89;28.89;94833.56;4919862;28;20481;-31
2022/04/24 06:35:09;;;;;;;9.63;2.00;;;;;;;-148.56;28.89;69510.81;4920715;28;20126;-31
2022/04/24 06:37:38;;;;;;;7.88;2.10;;;;;;;26.89;28.89;94833.56;4921477;28;21950;-29
2022/04/24 06:40:07;;;;;;;6.65;2.13;;;;;;;26.89;28.89;94833.56;4925282;28;20039;-30
2022/04/24 06:42:33;;;;;;;7.00;2.50;;;;;;;26.89;28.89;94833.56;4919770;28;20028;-30
2022/04/24 06:44:59;;;;;;;7.50;2.88;;;;;;;26.89;28.89;94833.56;4920957;28;20020;-32
2022/04/24 06:47:24;;;;;;;7.85;2.45;;;;;;;26.89;28.89;94833.56;4933730;28;20794;-34
2022/04/24 06:49:49;;;;;;;7.07;2.83;;;;;;;-148.56;28.89;94833.56;4922555;28;20039;-29
2022/04/24 06:52:15;;;;;;;5.47;2.45;;;;;;;26.89;28.89;94833.56;4927724;28;20323;-30
2022/04/24 06:54:40;;;;;;;9.45;2.65;;;;;;;26.89;28.89;94833.56;4921999;28;20036;-30
2022/04/24 06:57:06;;;;;;;9.13;3.08;;;;;;;26.89;28.89;94833.56;4923157;28;20083;-31
2022/04/24 06:59:31;;;;;;;8.40;2.80;;;;;;;-148.56;28.89;94833.56;4919262;28;20492;-32
2022/04/24 07:01:56;;;;;;;5.30;2.55;;;;;;;-148.56;28.89;94833.56;4921705;28;22504;-29
2022/04/24 07:04:22;;;;;;;6.05;2.70;;;;;;;26.89;28.89;94833.56;4919789;28;20074;-29
2022/04/24 07:06:47;;;;;;;6.25;2.60;;;;;;;26.89;29.00;94833.56;4922977;28;20031;-31
2022/04/24 07:09:13;;;;;;;7.93;2.67;;;;;;;26.82;28.99;94877.97;4926176;28;20031;-32
2022/04/24 07:11:40;;;;;;;7.95;2.75;;;;;;;26.82;28.99;94877.97;4919166;28;20035;-30
2022/04/24 07:14:05;;;;;;;7.50;2.72;;;;;;;26.82;28.99;94877.97;4927371;28;20122;-31
2022/04/24 07:16:33;;;;;;;6.10;2.83;;;;;;;26.82;28.99;94877.97;4921631;28;20043;-29
2022/04/24 07:18:59;;;;;;;7.90;2.88;;;;;;;26.82;28.99;94877.97;4919904;28;20104;-30
2022/04/24 07:21:25;;;;;;;6.45;2.50;;;;;;;26.82;28.99;94877.97;4921828;28;20031;-31
2022/04/24 07:23:50;;;;;;;4.72;2.67;;;;;;;26.82;28.99;94877.97;4920226;28;20047;-30
2022/04/24 07:26:16;;;;;;;6.80;2.60;;;;;;;26.82;28.99;94877.97;4922334;28;20040;-31
2022/04/24 07:28:41;;;;;;;9.30;2.38;;;;;;;26.82;28.99;94877.97;4920569;28;20039;-30
2022/04/24 07:31:07;;;;;;;7.07;2.65;;;;;;;26.82;28.99;94877.97;4920842;28;20030;-31
2022/04/24 07:33:32;;;;;;;6.65;2.28;;;;;;;26.82;28.99;94877.97;4922998;28;20818;-29
2022/04/24 07:35:57;;;;;;;6.78;2.67;;;;;;;26.82;28.99;94877.97;4921507;28;20462;-30
2022/04/24 07:38:23;;;;;;;6.13;2.53;;;;;;;26.82;28.99;94877.97;4922778;28;20031;-32
2022/04/24 07:40:48;;;;;;;8.00;2.55;;;;;;;26.82;28.99;94877.97;4922500;28;20058;-29
2022/04/24 07:43:14;;;;;;;7.65;2.72;;;;;;;26.82;28.99;94877.97;4928433;28;20498;-31
2022/04/24 07:45:41;;;;;;;4.97;2.78;;;;;;;26.82;28.99;94877.97;4921001;28;20043;-30
2022/04/24 07:48:07;;;;;;;5.25;2.40;;;;;;;26.82;28.99;94877.97;4920102;28;21001;-31
2022/04/24 07:50:37;;;;;;;7.32;2.53;;;;;;;26.82;28.99;94877.97;4927522;28;20031;-33
2022/04/24 07:53:03;;;;;;;5.20;2.28;;;;;;;26.82;28.99;94877.97;4927072;28;20027;-31
2022/04/24 07:55:29;;;;;;;5.13;2.38;;;;;;;26.82;28.99;94877.97;4926821;28;20110;-31
2022/04/24 07:57:55;;;;;;;7.20;2.65;;;;;;;26.82;28.99;94877.97;4928275;28;20145;-31
2022/04/24 08:00:26;;;;;;;4.93;2.17;;;;;;;26.82;28.99;94877.97;4925820;28;20031;-29
2022/04/24 08:03:02;;;;;;;7.40;2.30;;;;;;;26.82;28.99;94877.97;4926922;28;20074;-30
2022/04/24 08:05:31;;;;;;;6.53;1.95;;;;;;;26.82;28.99;94877.97;4926684;28;20070;-30
2022/04/24 08:07:58;;;;;;;5.40;2.10;;;;;;;26.82;28.99;94877.97;4925633;28;20453;-32
2022/04/24 08:10:24;;;;;;;5.70;2.17;;;;;;;26.82;28.99;94877.97;4923458;28;20192;-30
2022/04/24 08:12:50;;;;;;;7.00;2.35;;;;;;;26.82;28.99;94877.97;4924595;28;20378;-34
2022/04/24 08:15:15;;;;;;;6.20;2.40;;;;;;;26.82;28.99;94877.97;4923870;28;20164;-30
2022/04/24 08:17:41;;;;;;;6.45;2.47;;;;;;;26.82;28.99;94877.97;4924019;28;20471;-33
2022/04/24 08:20:07;;;;;;;5.20;2.33;;;;;;;26.82;28.99;94877.97;4927984;28;22290;-30
2022/04/24 08:22:42;;;;;;;4.80;2.17;;;;;;;26.82;28.99;94877.97;4921902;28;20023;-31
2022/04/24 08:25:09;;;;;;;4.70;2.00;;;;;;;26.82;28.99;94877.97;4941340;28;20626;-30
2022/04/24 08:27:35;;;;;;;4.40;1.90;;;;;;;26.82;28.99;94877.97;4924541;28;20035;-31
2022/04/24 08:30:01;;;;;;;48.40;2.92;;;;;;;26.82;28.99;94877.97;4919017;28;20865;-30
2022/04/24 08:32:26;;;;;;;13.23;2.17;;;;;;;26.82;28.99;94877.97;4922389;28;20030;-29
2022/04/24 08:34:52;;;;;;;12.18;2.08;;;;;;;26.82;28.99;94877.97;4932759;28;20047;-29
2022/04/24 08:37:17;;;;;;;8.07;1.55;;;;;;;26.82;28.99;94877.97;4933370;28;20475;-30
2022/04/24 08:39:43;;;;;;;6.30;2.20;;;;;;;26.82;28.99;94877.97;4929076;28;20057;-31
2022/04/24 08:42:09;;;;;;;6.30;1.65;;;;;;;26.82;28.99;94877.97;4930666;28;20070;-30
2022/04/24 08:44:35;;;;;;;10.45;1.90;;;;;;;26.82;28.99;94877.97;4930232;28;20042;-31
2022/04/24 08:47:01;;;;;;;8.00;2.10;;;;;;;26.82;28.99;94877.97;4928849;28;20032;-32
2022/04/24 08:49:26;;;;;;;5.90;1.70;;;;;;;26.82;28.99;94877.97;4927876;28;20027;-31
2022/04/24 08:51:52;;;;;;;7.85;1.75;;;;;;;26.82;28.99;94877.97;4942052;28;20055;-31
2022/04/24 08:54:17;;;;;;;5.55;1.80;;;;;;;-148.56;28.99;94877.97;4929285;28;20082;-31
2022/04/24 08:56:43;;;;;;;4.68;1.50;;;;;;;-148.56;28.99;94877.97;4926174;28;20035;-31
2022/04/24 08:59:08;;;;;;;4.60;1.73;;;;;;;26.82;28.99;94877.97;4926689;28;20521;-31
2022/04/24 09:01:42;;;;;;;14.82;2.22;;;;;;;26.82;28.99;94877.97;4926023;28;20023;-30
2022/04/24 09:04:07;;;;;;;5.03;2.00;;;;;;;26.82;28.99;94877.97;4916972;28;20031;-32
2022/04/24 09:06:32;;;;;;;7.72;2.05;;;;;;;26.82;28.99;94877.97;4922589;28;20603;-30
2022/04/24 09:09:07;;;;;;;5.43;2.00;;;;;;;-148.56;26.89;113866.56;4923281;28;20035;-31
2022/04/24 09:11:33;;;;;;;7.10;1.77;;;;;;;26.82;28.99;94877.97;4924124;28;20869;-32
2022/04/24 09:14:18;;;;;;;4.28;1.70;;;;;;;26.82;28.99;94877.97;4920597;28;20082;-35
2022/04/24 09:16:48;;;;;;;5.82;2.10;;;;;;;-148.56;28.99;94877.97;4920566;28;20122;-29
2022/04/24 09:19:23;;;;;;;7.57;1.70;;;;;;;-148.56;28.99;94877.97;4923613;28;20058;-31
2022/04/24 09:21:50;;;;;;;6.45;2.13;;;;;;;26.82;28.99;94877.97;4922074;28;20039;-32
2022/04/24 09:24:15;;;;;;;4.68;1.88;;;;;;;26.82;28.99;94877.97;4922620;28;20684;-30
2022/04/24 09:26:54;;;;;;;5.57;1.60;;;;;;;26.82;28.99;94877.97;4922747;28;20031;-32
2022/04/24 09:29:22;;;;;;;3.80;2.05;;;;;;;26.82;28.99;94877.97;4919836;28;20126;-30
2022/04/24 09:31:49;;;;;;;10.38;1.92;;;;;;;26.82;28.99;94877.97;4919595;28;20035;-30
2022/04/24 09:34:16;;;;;;;7.28;1.77;;;;;;;26.82;28.99;94877.97;4935012;28;20130;-32
2022/04/24 09:36:42;;;;;;;7.43;1.55;;;;;;;26.73;29.55;94957.56;4938943;28;20037;-30
2022/04/24 09:39:07;;;;;;;4.38;2.05;;;;;;;26.73;29.55;94957.56;4922637;28;20035;-30
2022/04/24 09:41:33;;;;;;;5.78;1.75;;;;;;;26.73;29.55;94957.56;4924363;28;20035;-30
2022/04/24 09:43:58;;;;;;;5.97;1.80;;;;;;;26.73;29.55;94957.56;4924952;28;20028;-31
2022/04/24 09:46:26;;;;;;;4.25;1.65;;;;;;;26.73;29.55;94957.56;4922138;28;20552;-32
2022/04/24 09:48:52;;;;;;;2.53;1.30;;;;;;;26.73;29.55;94957.56;4925025;28;20023;-32
2022/04/24 09:51:17;;;;;;;3.53;1.75;;;;;;;26.73;29.55;94957.56;4925276;28;20032;-32
2022/04/24 09:53:43;;;;;;;5.93;1.38;;;;;;;26.73;29.55;94957.56;4926105;28;20660;-32
2022/04/24 09:56:09;;;;;;;5.97;1.60;;;;;;;26.73;29.55;94957.56;4929331;28;20074;-31
2022/04/24 09:58:35;;;;;;;6.93;1.50;;;;;;;26.73;29.55;94957.56;4927591;28;20662;-31
2022/04/24 10:01:01;;;;;;;2.67;1.27;;;;;;;26.73;29.55;94957.56;4923234;28;20032;-30
2022/04/24 10:03:26;;;;;;;2.72;1.40;;;;;;;26.73;29.55;94957.56;4925135;28;20598;-30
2022/04/24 10:05:51;;;;;;;3.40;1.42;;;;;;;26.73;29.55;94957.56;4924181;28;20036;-30
2022/04/24 10:08:18;;;;;;;4.72;1.60;;;;;;;26.73;29.55;94957.56;4920046;28;20035;-31
2022/04/24 10:10:43;;;;;;;2.72;1.55;;;;;;;26.73;29.55;94957.56;4922631;28;20036;-31
2022/04/24 10:13:10;;;;;;;4.20;1.42;;;;;;;26.73;29.55;94957.56;4918904;28;21866;-30
2022/04/24 10:15:46;;;;;;;12.23;2.20;;;;;;;26.73;29.55;94957.56;4918889;28;20035;-32
2022/04/24 10:18:39;;;;;;;8.88;3.10;;;;;;;26.73;29.55;94957.56;4935789;28;20061;-33
2022/04/24 10:21:39;;;;;;;5.03;2.00;;;;;;;26.73;29.55;94957.56;4929494;28;20062;-31
2022/04/24 10:24:09;;;;;;;4.57;2.15;;;;;;;26.73;29.55;94957.56;4935381;28;20038;-32
2022/04/24 10:26:35;;;;;;;3.70;2.00;;;;;;;26.73;29.55;94957.56;4916553;28;20034;-31
2022/04/24 10:29:09;;;;;;;6.60;2.40;;;;;;;26.73;29.55;94957.56;4924086;28;20054;-30
2022/04/24 10:31:42;;;;;;;3.95;1.90;;;;;;;26.73;29.55;94957.56;4921632;28;20570;-30
2022/04/24 10:34:08;;;;;;;6.30;2.38;;;;;;;26.73;29.55;94957.56;4922802;28;20117;-32
2022/04/24 10:36:33;;;;;;;3.95;2.17;;;;;;;26.73;29.55;94957.56;4923797;28;20034;-29
2022/04/24 10:39:01;;;;;;;6.65;2.25;;;;;;;26.73;29.55;94957.56;4925226;28;20079;-31
2022/04/24 10:41:30;;;;;;;7.88;2.60;;;;;;;26.73;29.55;94957.56;4924937;28;20062;-30
2022/04/24 10:44:08;;;;;;;6.82;2.10;;;;;;;26.73;29.55;94957.56;4920590;28;20108;-31
2022/04/24 10:46:33;;;;;;;3.78;1.95;;;;;;;26.73;29.55;94957.56;4938667;28;20042;-29
2022/04/24 10:49:11;;;;;;;5.88;2.25;;;;;;;26.73;29.55;94957.56;4921439;28;20031;-29
2022/04/24 10:51:40;;;;;;;4.00;1.90;;;;;;;26.73;29.55;94957.56;4921783;28;20486;-29
2022/04/24 10:54:09;;;;;;;5.13;1.90;;;;;;;26.73;29.55;94957.56;4924469;28;20028;-30
2022/04/24 10:56:36;;;;;;;3.67;1.75;;;;;;;26.73;29.55;94957.56;4922199;28;20038;-30
2022/04/24 10:59:09;;;;;;;7.43;1.77;;;;;;;26.73;29.55;94957.56;4921856;28;20032;-29
2022/04/24 11:01:35;;;;;;;6.90;2.20;;;;;;;26.73;29.55;94957.56;4938344;28;20110;-31
2022/04/24 11:04:12;;;;;;;5.28;2.03;;;;;;;-148.56;29.55;69621.78;4921593;28;20291;-33
2022/04/24 11:06:38;;;;;;;4.70;1.85;;;;;;;26.73;29.55;94957.56;4920560;28;20405;-29
2022/04/24 11:09:11;;;;;;;3.92;1.90;;;;;;;-148.56;29.55;94957.56;4922951;28;20089;-32
2022/04/24 11:11:45;;;;;;;4.57;1.88;;;;;;;26.73;29.55;94957.56;4919399;28;20035;-30
2022/04/24 11:14:11;;;;;;;6.40;1.95;;;;;;;-148.56;29.55;94957.56;4922439;28;20027;-30
2022/04/24 11:16:36;;;;;;;3.92;1.80;;;;;;;26.73;29.55;94957.56;4920413;28;20617;-30
2022/04/24 11:19:02;;;;;;;4.03;1.98;;;;;;;26.73;29.55;94957.56;4922318;28;20070;-29
2022/04/24 11:21:27;;;;;;;4.50;1.95;;;;;;;26.73;29.55;94957.56;4919294;28;20039;-30
2022/04/24 11:23:58;;;;;;;4.35;2.00;;;;;;;26.73;29.55;94957.56;4926153;28;20031;-29
2022/04/24 11:26:24;;;;;;;4.43;1.90;;;;;;;26.73;29.55;94957.56;4927456;28;20675;-33
2022/04/24 11:28:49;;;;;;;4.20;1.65;;;;;;;26.73;29.55;94957.56;4925161;28;20046;-29